createdAt,value
2023-04-21T00:02:28.381Z,6.03
2023-04-21T00:04:58.469Z,6.30
2023-04-21T00:07:26.977Z,5.80
2023-04-21T00:09:55.412Z,6.03
2023-04-21T00:12:23.848Z,5.40
2023-04-21T00:14:52.295Z,5.47
2023-04-21T00:17:21.645Z,5.13
2023-04-21T00:19:50.121Z,4.90
2023-04-21T00:22:20.185Z,4.87
2023-04-21T00:24:48.792Z,4.40
2023-04-21T00:27:20.029Z,4.03
2023-04-21T00:29:48.455Z,3.70
2023-04-21T00:32:16.883Z,3.77
2023-04-21T00:34:45.388Z,3.83
2023-04-21T00:37:13.769Z,3.60
2023-04-21T00:39:43.688Z,3.60
2023-04-21T00:42:12.168Z,3.60
2023-04-21T00:44:40.675Z,4.00
2023-04-21T00:47:09.078Z,4.80
2023-04-21T00:49:38.304Z,4.90
2023-04-21T00:52:06.974Z,4.60
2023-04-21T00:54:36.684Z,4.43
2023-04-21T00:57:07.905Z,4.40
2023-04-21T00:59:36.352Z,4.07
2023-04-21T01:02:05.321Z,3.83
2023-04-21T01:04:37.127Z,3.77
2023-04-21T01:07:06.093Z,4.23
2023-04-21T01:09:34.829Z,4.47
2023-04-21T01:12:04.240Z,4.40
2023-04-21T01:14:34.180Z,3.50
2023-04-21T01:17:03.882Z,3.70
2023-04-21T01:19:35.748Z,3.73
2023-04-21T01:22:05.713Z,4.10
2023-04-21T01:24:38.571Z,4.03
2023-04-21T01:27:10.797Z,4.27
2023-04-21T01:29:39.905Z,3.93
2023-04-21T01:32:09.485Z,3.87
2023-04-21T01:34:39.665Z,4.30
2023-04-21T01:37:10.570Z,4.10
2023-04-21T01:39:40.015Z,3.83
2023-04-21T01:42:08.842Z,4.17
2023-04-21T01:44:37.781Z,4.27
2023-04-21T01:47:07.897Z,4.13
2023-04-21T01:49:36.393Z,3.83
2023-04-21T01:52:04.978Z,3.60
2023-04-21T01:54:34.802Z,3.80
2023-04-21T01:57:03.320Z,4.37
2023-04-21T01:59:31.832Z,3.60
2023-04-21T02:02:00.380Z,3.50
2023-04-21T02:04:29.194Z,3.47
2023-04-21T02:06:57.816Z,3.60
2023-04-21T02:09:26.236Z,3.70
2023-04-21T02:11:57.185Z,3.70
2023-04-21T02:14:25.978Z,6.93
2023-04-21T02:16:56.154Z,12.50
2023-04-21T02:19:24.867Z,22.43
2023-04-21T02:21:53.394Z,15.40
2023-04-21T02:24:21.810Z,6.83
2023-04-21T02:26:50.373Z,4.87
2023-04-21T02:29:20.396Z,4.47
2023-04-21T02:32:00.660Z,4.10
2023-04-21T02:34:33.916Z,3.70
2023-04-21T02:37:02.552Z,3.73
2023-04-21T02:39:30.981Z,4.00
2023-04-21T02:41:59.884Z,3.83
2023-04-21T02:44:29.744Z,4.07
2023-04-21T02:46:58.174Z,3.93
2023-04-21T02:49:26.743Z,4.17
2023-04-21T02:51:55.723Z,4.70
2023-04-21T02:54:24.205Z,4.33
2023-04-21T02:56:52.688Z,4.50
2023-04-21T02:59:21.187Z,4.20
2023-04-21T03:01:51.078Z,3.90
2023-04-21T03:04:19.815Z,4.20
2023-04-21T03:06:48.435Z,3.90
2023-04-21T03:09:17.011Z,4.20
2023-04-21T03:11:45.504Z,3.90
2023-04-21T03:14:13.899Z,4.10
2023-04-21T03:16:42.355Z,4.10
2023-04-21T03:19:12.192Z,3.97
2023-04-21T03:21:40.678Z,4.40
2023-04-21T03:24:09.482Z,4.00
2023-04-21T03:26:39.327Z,3.60
2023-04-21T03:29:07.867Z,4.80
2023-04-21T03:31:36.378Z,3.80
2023-04-21T03:34:04.854Z,4.13
2023-04-21T03:36:34.688Z,4.10
2023-04-21T03:39:16.830Z,4.30
2023-04-21T03:41:48.187Z,4.40
2023-04-21T03:44:16.696Z,4.40
2023-04-21T03:46:45.111Z,4.50
2023-04-21T03:49:13.604Z,3.90
2023-04-21T03:51:43.582Z,3.57
2023-04-21T03:54:12.016Z,3.63
2023-04-21T03:56:40.468Z,4.00
2023-04-21T03:59:08.976Z,4.10
2023-04-21T04:01:37.475Z,3.93
2023-04-21T04:04:06.591Z,3.87
2023-04-21T04:06:35.704Z,3.83
2023-04-21T04:09:05.701Z,3.70
2023-04-21T04:11:34.212Z,4.03
2023-04-21T04:14:02.641Z,4.20
2023-04-21T04:16:31.251Z,4.20
2023-04-21T04:18:59.748Z,4.37
2023-04-21T04:21:28.613Z,4.43
2023-04-21T04:23:57.719Z,4.93
2023-04-21T04:26:27.915Z,5.10
2023-04-21T04:28:57.504Z,4.90
2023-04-21T04:31:26.002Z,4.70
2023-04-21T04:33:55.664Z,4.37
2023-04-21T04:36:24.831Z,4.70
2023-04-21T04:38:53.362Z,4.47
2023-04-21T04:41:22.751Z,4.40
2023-04-21T04:43:54.252Z,8.80
2023-04-21T04:46:22.743Z,6.63
2023-04-21T04:48:51.207Z,7.73
2023-04-21T04:51:19.616Z,5.43
2023-04-21T04:53:48.073Z,5.07
2023-04-21T04:56:16.682Z,4.70
2023-04-21T04:58:46.500Z,4.20
2023-04-21T05:01:16.660Z,4.90
2023-04-21T05:03:46.645Z,4.93
2023-04-21T05:06:15.324Z,4.77
2023-04-21T05:08:43.799Z,6.00
2023-04-21T05:11:12.339Z,6.50
2023-04-21T05:13:40.813Z,8.20
2023-04-21T05:16:11.428Z,6.57
2023-04-21T05:18:41.358Z,5.47
2023-04-21T05:21:09.885Z,4.93
2023-04-21T05:23:38.306Z,5.30
2023-04-21T05:26:06.890Z,12.20
2023-04-21T05:28:35.917Z,10.07
2023-04-21T05:31:04.371Z,8.13
2023-04-21T05:33:32.847Z,8.23
2023-04-21T05:36:02.662Z,8.87
2023-04-21T05:38:31.144Z,8.40
2023-04-21T05:40:59.584Z,7.43
2023-04-21T05:43:28.037Z,6.80
2023-04-21T05:45:56.543Z,6.30
2023-04-21T05:48:25.172Z,5.87
2023-04-21T05:50:53.611Z,6.73
2023-04-21T05:53:23.622Z,7.80
2023-04-21T05:55:52.065Z,7.33
2023-04-21T05:58:20.514Z,7.30
2023-04-21T06:00:50.190Z,6.60
2023-04-21T06:03:18.853Z,6.33
2023-04-21T06:05:47.467Z,7.17
2023-04-21T06:08:15.976Z,7.07
2023-04-21T06:10:45.783Z,6.27
2023-04-21T06:13:14.271Z,6.03
2023-04-21T06:15:42.805Z,5.80
2023-04-21T06:18:11.426Z,5.17
2023-04-21T06:20:40.924Z,4.60
2023-04-21T06:23:09.969Z,4.60
2023-04-21T06:25:38.452Z,4.70
2023-04-21T06:28:08.512Z,4.57
2023-04-21T06:30:36.955Z,3.90
2023-04-21T06:33:06.819Z,3.70
2023-04-21T06:35:35.428Z,4.10
2023-04-21T06:38:03.886Z,4.37
2023-04-21T06:40:32.289Z,4.10
2023-04-21T06:43:00.721Z,4.63
2023-04-21T06:45:30.529Z,4.53
2023-04-21T06:47:59.022Z,4.67
2023-04-21T06:50:27.592Z,4.80
2023-04-21T06:52:56.096Z,4.33
2023-04-21T06:55:27.385Z,4.40
2023-04-21T06:57:55.833Z,4.97
2023-04-21T07:00:24.456Z,5.00
2023-04-21T07:02:54.350Z,4.87
2023-04-21T07:05:22.814Z,4.90
2023-04-21T07:07:51.347Z,4.90
2023-04-21T07:10:20.218Z,5.37
2023-04-21T07:12:48.652Z,4.60
2023-04-21T07:15:17.314Z,4.97
2023-04-21T07:17:45.777Z,4.80
2023-04-21T07:20:15.718Z,5.43
2023-04-21T07:22:44.168Z,5.17
2023-04-21T07:25:12.739Z,4.87
2023-04-21T07:27:41.457Z,4.50
2023-04-21T07:30:10.892Z,5.07
2023-04-21T07:32:39.540Z,5.17
2023-04-21T07:35:08.696Z,6.97
2023-04-21T07:37:40.083Z,6.20
2023-04-21T07:40:09.749Z,5.10
2023-04-21T07:42:38.144Z,4.60
2023-04-21T07:45:07.540Z,4.60
2023-04-21T07:47:36.034Z,4.80
2023-04-21T07:50:04.832Z,4.50
2023-04-21T07:52:33.562Z,4.70
2023-04-21T07:55:03.778Z,5.10
2023-04-21T07:57:34.534Z,4.80
2023-04-21T08:00:03.507Z,4.30
2023-04-21T08:02:32.647Z,12.17
2023-04-21T08:05:01.449Z,10.70
2023-04-21T08:07:30.392Z,4.87
2023-04-21T08:09:58.895Z,5.13
2023-04-21T08:12:28.707Z,4.87
2023-04-21T08:14:57.125Z,5.50
2023-04-21T08:17:25.928Z,5.50
2023-04-21T08:19:54.404Z,4.97
2023-04-21T08:22:23.036Z,5.10
2023-04-21T08:24:51.498Z,4.43
2023-04-21T08:27:19.934Z,5.00
2023-04-21T08:29:51.047Z,16.77
2023-04-21T08:32:23.496Z,7.73
2023-04-21T08:34:52.320Z,5.10
2023-04-21T08:37:21.487Z,9.43
2023-04-21T08:39:50.876Z,6.83
2023-04-21T08:42:19.590Z,5.23
2023-04-21T08:44:49.888Z,5.50
2023-04-21T08:47:18.358Z,4.60
2023-04-21T08:49:47.224Z,5.20
2023-04-21T08:52:15.814Z,4.63
2023-04-21T08:54:44.290Z,4.60
2023-04-21T08:57:15.691Z,4.77
2023-04-21T08:59:45.680Z,5.47
2023-04-21T09:02:17.244Z,5.30
2023-04-21T09:04:47.702Z,4.90
2023-04-21T09:07:33.241Z,5.43
2023-04-21T09:10:02.100Z,5.07
2023-04-21T09:12:31.471Z,5.90
2023-04-21T09:15:00.984Z,5.30
2023-04-21T09:17:33.856Z,5.60
2023-04-21T09:20:15.909Z,5.10
2023-04-21T09:22:44.533Z,5.47
2023-04-21T09:25:17.710Z,5.10
2023-04-21T09:27:47.089Z,5.83
2023-04-21T09:30:20.453Z,5.97
2023-04-21T09:32:51.166Z,9.83
2023-04-21T09:35:19.714Z,9.07
2023-04-21T09:37:48.168Z,7.40
2023-04-21T09:40:19.563Z,6.03
2023-04-21T09:42:49.533Z,6.30
2023-04-21T09:47:52.593Z,5.20
2023-04-21T09:50:39.331Z,5.80
2023-04-21T09:53:16.541Z,11.10
2023-04-21T09:55:49.494Z,14.53
2023-04-21T09:58:21.798Z,8.50
2023-04-21T10:00:50.799Z,6.27
2023-04-21T10:03:22.328Z,6.10
2023-04-21T10:05:51.431Z,6.03
2023-04-21T10:08:20.135Z,6.43
2023-04-21T10:10:48.702Z,7.23
2023-04-21T10:13:18.662Z,7.73
2023-04-21T10:15:47.405Z,8.00
2023-04-21T10:18:18.557Z,8.33
2023-04-21T10:20:55.790Z,8.07
2023-04-21T10:23:28.964Z,8.60
2023-04-21T10:26:06.842Z,10.90
2023-04-21T10:28:49.440Z,8.93
2023-04-21T10:31:23.148Z,8.30
2023-04-21T10:34:13.837Z,8.63
2023-04-21T10:37:08.668Z,7.87
2023-04-21T10:39:38.340Z,7.63
2023-04-21T10:42:24.720Z,8.60
2023-04-21T10:44:55.116Z,9.40
2023-04-21T10:47:27.341Z,8.57
2023-04-21T10:49:57.860Z,7.70
2023-04-21T10:52:34.598Z,9.23
2023-04-21T10:55:15.605Z,9.00
2023-04-21T10:57:45.575Z,9.17
2023-04-21T11:00:18.062Z,8.97
2023-04-21T11:02:55.252Z,8.43
2023-04-21T11:05:29.659Z,8.70
2023-04-21T11:08:20.195Z,7.67
2023-04-21T11:10:57.907Z,8.77
2023-04-21T11:13:29.079Z,13.93
2023-04-21T11:16:08.563Z,10.50
2023-04-21T11:18:41.808Z,8.60
2023-04-21T11:21:11.731Z,7.77
2023-04-21T11:23:50.120Z,8.07
2023-04-21T11:26:19.352Z,8.40
2023-04-21T11:28:50.869Z,9.10
2023-04-21T11:31:19.481Z,8.17
2023-04-21T11:33:47.983Z,8.40
2023-04-21T11:36:16.435Z,8.20
2023-04-21T11:38:46.195Z,8.00
2023-04-21T11:41:22.084Z,9.23
2023-04-21T11:43:50.838Z,8.20
2023-04-21T11:46:23.557Z,8.47
2023-04-21T11:49:00.959Z,7.30
2023-04-21T11:51:34.687Z,7.50
2023-04-21T11:54:06.815Z,7.17
2023-04-21T11:56:37.890Z,7.47
2023-04-21T11:59:09.806Z,6.30
2023-04-21T12:01:44.639Z,6.13
2023-04-21T12:04:16.198Z,5.73
2023-04-21T12:06:45.301Z,6.23
2023-04-21T12:09:20.538Z,5.60
2023-04-21T12:11:50.619Z,5.43
2023-04-21T12:14:19.363Z,5.83
2023-04-21T12:16:50.321Z,7.50
2023-04-21T12:19:37.174Z,6.67
2023-04-21T12:22:08.790Z,7.83
2023-04-21T12:24:39.332Z,9.37
2023-04-21T12:27:08.299Z,6.40
2023-04-21T12:29:37.880Z,6.57
2023-04-21T12:32:07.054Z,5.93
2023-04-21T12:34:36.155Z,5.90
2023-04-21T12:37:06.093Z,5.60
2023-04-21T12:39:34.926Z,6.13
2023-04-21T12:42:04.853Z,9.50
2023-04-21T12:44:33.446Z,12.27
2023-04-21T12:47:02.036Z,6.90
2023-04-21T12:49:31.032Z,6.17
2023-04-21T12:52:00.207Z,7.27
2023-04-21T12:54:28.822Z,6.20
2023-04-21T12:56:58.071Z,5.67
2023-04-21T12:59:28.190Z,5.83
2023-04-21T13:01:56.890Z,6.37
2023-04-21T13:04:25.651Z,5.33
2023-04-21T13:06:54.420Z,5.30
2023-04-21T13:09:22.895Z,4.67
2023-04-21T13:11:52.150Z,4.93
2023-04-21T13:14:20.746Z,4.77
2023-04-21T13:16:50.659Z,4.67
2023-04-21T13:19:19.277Z,4.80
2023-04-21T13:21:48.279Z,4.30
2023-04-21T13:24:16.786Z,5.17
2023-04-21T13:26:45.421Z,4.63
2023-04-21T13:29:13.961Z,3.80
2023-04-21T13:31:42.520Z,3.77
2023-04-21T13:34:13.418Z,3.40
2023-04-21T13:36:42.388Z,3.67
2023-04-21T13:39:11.431Z,7.87
2023-04-21T13:41:40.056Z,39.23
2023-04-21T13:44:08.650Z,13.00
2023-04-21T13:46:37.456Z,11.23
2023-04-21T13:49:06.536Z,13.60
2023-04-21T13:51:37.082Z,10.17
2023-04-21T13:54:09.196Z,8.37
2023-04-21T13:56:39.644Z,7.63
2023-04-21T13:59:10.913Z,4.50
2023-04-21T14:01:41.520Z,3.70
2023-04-21T14:04:10.273Z,3.77
2023-04-21T14:06:43.317Z,3.20
2023-04-21T14:09:12.018Z,3.00
2023-04-21T14:11:40.531Z,3.73
2023-04-21T14:14:10.289Z,7.03
2023-04-21T14:16:40.023Z,4.13
2023-04-21T14:19:08.601Z,2.50
2023-04-21T14:21:37.361Z,2.90
2023-04-21T14:24:07.553Z,3.00
2023-04-21T14:26:39.489Z,2.77
2023-04-21T14:29:08.025Z,2.70
2023-04-21T14:31:36.734Z,2.67
2023-04-21T14:34:05.489Z,2.60
2023-04-21T14:36:34.353Z,2.50
2023-04-21T14:39:03.017Z,2.37
2023-04-21T14:41:35.828Z,2.70
2023-04-21T14:44:04.655Z,2.40
2023-04-21T14:46:36.685Z,2.60
2023-04-21T14:49:05.852Z,2.93
2023-04-21T14:51:34.521Z,2.60
2023-04-21T14:54:03.030Z,2.67
2023-04-21T14:56:33.197Z,3.70
2023-04-21T14:59:01.728Z,8.87
2023-04-21T15:01:30.609Z,4.10
2023-04-21T15:04:00.267Z,3.50
2023-04-21T15:06:29.219Z,3.03
2023-04-21T15:09:01.037Z,3.27
2023-04-21T15:11:30.740Z,3.50
2023-04-21T15:14:00.759Z,3.33
2023-04-21T15:16:29.612Z,2.80
2023-04-21T15:18:58.120Z,3.30
2023-04-21T15:21:27.210Z,3.33
2023-04-21T15:23:55.701Z,3.70
2023-04-21T15:26:24.444Z,3.43
2023-04-21T15:28:53.004Z,3.20
2023-04-21T15:31:22.880Z,3.17
2023-04-21T15:33:51.412Z,3.30
2023-04-21T15:36:20.197Z,3.30
2023-04-21T15:38:49.413Z,3.20
2023-04-21T15:41:20.292Z,3.80
2023-04-21T15:43:49.471Z,3.67
2023-04-21T15:46:18.331Z,3.80
2023-04-21T15:48:51.390Z,3.77
2023-04-21T15:51:20.745Z,3.53
2023-04-21T15:53:51.542Z,3.93
2023-04-21T15:56:23.048Z,3.90
2023-04-21T15:58:51.532Z,5.90
2023-04-21T16:01:25.275Z,13.13
2023-04-21T16:03:55.735Z,10.97
2023-04-21T16:06:25.301Z,7.23
2023-04-21T16:08:53.861Z,4.40
2023-04-21T16:11:24.826Z,4.00
2023-04-21T16:13:53.569Z,3.40
2023-04-21T16:16:22.346Z,3.23
2023-04-21T16:18:51.200Z,2.83
2023-04-21T16:21:21.786Z,3.50
2023-04-21T16:23:50.549Z,3.03
2023-04-21T16:26:19.673Z,3.40
2023-04-21T16:28:48.149Z,3.37
2023-04-21T16:31:16.691Z,3.60
2023-04-21T16:33:45.325Z,3.40
2023-04-21T16:36:15.849Z,3.80
2023-04-21T16:38:45.781Z,6.60
2023-04-21T16:41:14.418Z,5.50
2023-04-21T16:43:43.313Z,5.07
2023-04-21T16:46:12.361Z,3.83
2023-04-21T16:48:44.420Z,3.30
2023-04-21T16:51:14.996Z,3.57
2023-04-21T16:53:44.860Z,3.77
2023-04-21T16:56:14.797Z,12.20
2023-04-21T16:58:43.714Z,8.50
2023-04-21T17:01:12.230Z,4.63
2023-04-21T17:03:41.828Z,3.80
2023-04-21T17:06:11.996Z,3.90
2023-04-21T17:08:40.524Z,3.50
2023-04-21T17:11:10.350Z,14.10
2023-04-21T17:13:39.393Z,18.63
2023-04-21T17:16:08.642Z,16.27
2023-04-21T17:18:37.259Z,11.00
2023-04-21T17:21:06.886Z,6.63
2023-04-21T17:23:35.685Z,6.27
2023-04-21T17:26:05.140Z,5.07
2023-04-21T17:28:34.984Z,4.40
2023-04-21T17:31:14.596Z,3.93
2023-04-21T17:33:44.201Z,3.87
2023-04-21T17:36:13.091Z,5.23
2023-04-21T17:38:42.828Z,6.67
2023-04-21T17:41:11.611Z,11.83
2023-04-21T17:43:41.616Z,12.57
2023-04-21T17:46:10.219Z,14.13
2023-04-21T17:48:38.990Z,13.77
2023-04-21T17:51:07.637Z,8.50
2023-04-21T17:53:36.189Z,6.10
2023-04-21T17:56:04.739Z,5.07
2023-04-21T17:58:34.391Z,15.27
2023-04-21T18:01:04.314Z,28.67
2023-04-21T18:03:33.055Z,27.10
2023-04-21T18:06:01.674Z,18.77
2023-04-21T18:08:30.186Z,23.13
2023-04-21T18:10:58.658Z,23.60
2023-04-21T18:13:27.342Z,23.87
2023-04-21T18:15:55.877Z,16.00
2023-04-21T18:18:26.783Z,9.70
2023-04-21T18:20:55.386Z,7.43
2023-04-21T18:23:23.940Z,6.60
2023-04-21T18:25:52.411Z,7.00
2023-04-21T18:28:21.016Z,7.70
2023-04-21T18:30:49.554Z,9.30
2023-04-21T18:33:19.046Z,10.13
2023-04-21T18:35:49.009Z,9.63
2023-04-21T18:38:17.562Z,7.27
2023-04-21T18:40:46.086Z,6.20
2023-04-21T18:43:15.843Z,5.60
2023-04-21T18:45:44.293Z,6.10
2023-04-21T18:48:12.921Z,12.00
2023-04-21T18:50:41.480Z,18.77
2023-04-21T18:53:11.336Z,15.20
2023-04-21T18:55:39.817Z,11.33
2023-04-21T18:58:08.294Z,12.37
2023-04-21T19:00:39.235Z,10.63
2023-04-21T19:03:07.951Z,8.30
2023-04-21T19:05:37.626Z,8.57
2023-04-21T19:08:06.437Z,16.17
2023-04-21T19:10:38.010Z,16.07
2023-04-21T19:13:06.773Z,17.73
2023-04-21T19:15:35.206Z,15.83
2023-04-21T19:18:03.759Z,18.73
2023-04-21T19:20:32.923Z,21.33
2023-04-21T19:23:01.555Z,16.47
2023-04-21T19:25:30.805Z,11.00
2023-04-21T19:28:01.938Z,9.00
2023-04-21T19:30:30.577Z,7.90
2023-04-21T19:32:59.102Z,17.77
2023-04-21T19:35:28.419Z,14.80
2023-04-21T19:37:57.021Z,13.07
2023-04-21T19:40:26.979Z,10.20
2023-04-21T19:42:55.937Z,6.80
2023-04-21T19:45:25.939Z,9.10
2023-04-21T19:47:54.932Z,11.73
2023-04-21T19:50:23.858Z,9.50
2023-04-21T19:52:52.825Z,9.47
2023-04-21T19:55:22.055Z,9.97
2023-04-21T19:57:51.425Z,9.87
2023-04-21T20:00:20.386Z,9.97
2023-04-21T20:02:50.633Z,9.63
2023-04-21T20:05:19.899Z,12.73
2023-04-21T20:07:49.079Z,8.60
2023-04-21T20:10:17.675Z,6.60
2023-04-21T20:12:46.493Z,6.10
2023-04-21T20:15:16.650Z,6.63
2023-04-21T20:17:47.752Z,7.87
2023-04-21T20:20:18.162Z,7.80
2023-04-21T20:22:49.072Z,8.07
2023-04-21T20:25:18.919Z,7.90
2023-04-21T20:27:54.412Z,7.60
2023-04-21T20:30:23.340Z,6.80
2023-04-21T20:32:52.428Z,6.50
2023-04-21T20:35:22.462Z,6.50
2023-04-21T20:37:53.520Z,6.37
2023-04-21T20:40:24.508Z,6.20
2023-04-21T20:42:53.097Z,6.30
2023-04-21T20:45:22.494Z,7.27
2023-04-21T20:47:51.398Z,8.17
2023-04-21T20:50:21.811Z,7.00
2023-04-21T20:52:51.046Z,9.50
2023-04-21T20:55:20.812Z,11.40
2023-04-21T20:57:49.300Z,11.10
2023-04-21T21:00:18.107Z,9.93
2023-04-21T21:02:46.640Z,7.83
2023-04-21T21:05:15.222Z,6.80
2023-04-21T21:07:45.113Z,6.20
2023-04-21T21:10:15.527Z,6.33
2023-04-21T21:12:45.475Z,5.50
2023-04-21T21:15:15.256Z,5.97
2023-04-21T21:17:43.919Z,6.23
2023-04-21T21:20:13.084Z,6.20
2023-04-21T21:22:43.174Z,6.00
2023-04-21T21:25:13.034Z,7.57
2023-04-21T21:27:41.586Z,7.10
2023-04-21T21:30:11.126Z,7.57
2023-04-21T21:32:39.640Z,7.53
2023-04-21T21:35:10.461Z,7.30
2023-04-21T21:37:39.369Z,5.77
2023-04-21T21:40:09.399Z,5.67
2023-04-21T21:42:45.695Z,5.23
2023-04-21T21:45:14.990Z,5.20
2023-04-21T21:48:05.252Z,5.17
2023-04-21T21:50:58.573Z,5.17
2023-04-21T21:54:27.793Z,5.07
2023-04-21T21:57:05.465Z,4.80
2023-04-21T21:59:36.203Z,5.10
2023-04-21T22:02:06.612Z,4.93
2023-04-21T22:04:44.712Z,4.50
2023-04-21T22:07:14.154Z,5.20
2023-04-21T22:09:45.247Z,5.10
2023-04-21T22:12:13.856Z,5.63
2023-04-21T22:14:45.330Z,5.10
2023-04-21T22:17:14.482Z,5.17
2023-04-21T22:19:49.800Z,4.50
2023-04-21T22:22:21.110Z,5.00
2023-04-21T22:24:49.549Z,5.17
2023-04-21T22:27:18.005Z,4.77
2023-04-21T22:29:47.912Z,5.40
2023-04-21T22:32:16.389Z,5.37
2023-04-21T22:34:44.929Z,4.50
2023-04-21T22:37:13.340Z,4.50
2023-04-21T22:39:41.806Z,4.40
2023-04-21T22:42:10.282Z,4.70
2023-04-21T22:44:38.756Z,5.00
2023-04-21T22:47:10.612Z,5.23
2023-04-21T22:49:39.561Z,5.10
2023-04-21T22:52:08.577Z,4.47
2023-04-21T22:54:37.155Z,4.70
2023-04-21T22:57:05.874Z,4.40
2023-04-21T22:59:34.424Z,4.77
2023-04-21T23:02:02.972Z,4.30
2023-04-21T23:04:32.853Z,4.80
2023-04-21T23:07:01.403Z,4.60
2023-04-21T23:09:29.882Z,4.40
2023-04-21T23:11:58.334Z,4.23
2023-04-21T23:14:27.140Z,4.10
2023-04-21T23:16:55.745Z,3.90
2023-04-21T23:19:24.224Z,3.53
2023-04-21T23:21:54.129Z,3.97
2023-04-21T23:24:22.590Z,4.00
2023-04-21T23:26:51.115Z,4.60
2023-04-21T23:29:19.580Z,4.37
2023-04-21T23:31:48.060Z,3.97
2023-04-21T23:34:16.520Z,4.37
2023-04-21T23:36:45.037Z,4.00
2023-04-21T23:39:14.839Z,4.00
2023-04-21T23:41:43.481Z,4.87
2023-04-21T23:44:11.931Z,4.97
2023-04-21T23:46:40.544Z,4.43
2023-04-21T23:49:09.029Z,4.87
2023-04-21T23:51:37.573Z,4.47
2023-04-21T23:54:06.064Z,4.57
2023-04-21T23:56:36.339Z,4.53
2023-04-21T23:59:04.792Z,4.50
